Time;durP1;ratioP1;P1;durP2;ratioP2;P2;SDS_P1;SDS_P2;PMS_P1;PMS_P2;Temp;Humidity;BMP_temperature;BMP_pressure;BME280_temperature;BME280_humidity;BME280_pressure;Samples;Min_cycle;Max_cycle;Signal;HPM_P1;HPM_P2
2022/03/28 00:01:24;;;;;;;27.83;9.30;;;0.00;1.00;;;;;;4337959;28;655937;-90
2022/03/28 00:04:12;;;;;;;29.00;9.67;;;0.00;1.00;;;;;;4319391;28;656558;-89
2022/03/28 00:07:00;;;;;;;29.20;9.37;;;0.00;1.00;;;;;;4325570;29;656874;-89
2022/03/28 00:09:48;;;;;;;27.40;8.87;;;0.00;1.00;;;;;;4319290;28;657287;-90
2022/03/28 00:12:37;;;;;;;28.50;10.20;;;0.00;1.00;;;;;;4327012;28;657321;-89
2022/03/28 00:15:24;;;;;;;23.37;9.03;;;-0.10;1.00;;;;;;4345234;28;657652;-90
2022/03/28 00:18:12;;;;;;;30.10;9.40;;;-0.10;1.00;;;;;;4321500;28;658114;-90
2022/03/28 00:20:59;;;;;;;25.80;9.57;;;-0.10;1.00;;;;;;4344306;28;657656;-89
2022/03/28 00:23:48;;;;;;;21.43;7.80;;;-0.10;1.00;;;;;;4317478;28;658086;-90
2022/03/28 00:26:35;;;;;;;22.80;8.70;;;-0.10;1.00;;;;;;4326919;28;657664;-90
2022/03/28 00:29:23;;;;;;;22.90;8.73;;;-0.10;1.00;;;;;;4340338;28;657875;-91
2022/03/28 00:32:11;;;;;;;26.70;9.43;;;-0.10;1.00;;;;;;4320657;28;657395;-89
2022/03/28 00:34:59;;;;;;;27.37;7.97;;;-0.10;1.00;;;;;;4338835;28;657541;-90
2022/03/28 00:37:47;;;;;;;29.63;8.50;;;-0.10;1.00;;;;;;4318250;28;657796;-90
2022/03/28 00:40:36;;;;;;;23.23;8.63;;;-0.10;1.00;;;;;;4346716;28;657907;-90
2022/03/28 00:43:23;;;;;;;22.20;8.80;;;-0.10;1.00;;;;;;4314872;28;658007;-90
2022/03/28 00:46:10;;;;;;;24.70;9.40;;;-0.20;1.00;;;;;;4312604;28;657350;-89
2022/03/28 00:48:58;;;;;;;24.80;8.63;;;-0.10;1.00;;;;;;4332954;28;658061;-88
2022/03/28 00:51:45;;;;;;;24.35;8.20;;;-0.10;1.00;;;;;;4321341;28;657718;-89
2022/03/28 00:54:33;;;;;;;25.33;8.50;;;-0.20;1.00;;;;;;4341213;28;658333;-90
2022/03/28 00:57:22;;;;;;;27.17;8.50;;;-0.20;1.00;;;;;;4325129;28;657475;-89
2022/03/28 01:00:10;;;;;;;21.33;8.20;;;-0.20;1.00;;;;;;4336620;28;657986;-89
2022/03/28 01:02:57;;;;;;;24.73;8.52;;;-0.20;1.00;;;;;;4319996;28;658530;-89
2022/03/28 01:05:45;;;;;;;21.33;8.53;;;-0.10;1.00;;;;;;4338697;28;657803;-88
2022/03/28 01:08:33;;;;;;;22.03;8.90;;;-0.20;1.00;;;;;;4337625;28;657738;-89
2022/03/28 01:11:20;;;;;;;25.73;8.82;;;-0.20;1.00;;;;;;4317991;28;657957;-89
2022/03/28 01:14:09;;;;;;;26.27;8.47;;;-0.20;1.00;;;;;;4340416;28;658440;-89
2022/03/28 01:20:01;;;;;;;25.37;8.83;;;-0.30;1.00;;;;;;4319117;28;657587;-89
2022/03/28 01:22:50;;;;;;;21.30;8.23;;;-0.30;1.00;;;;;;4328623;28;658149;-89
2022/03/28 01:25:37;;;;;;;25.00;9.00;;;-0.30;1.00;;;;;;4305519;28;657987;-89
2022/03/28 01:28:27;;;;;;;28.53;8.70;;;-0.20;1.00;;;;;;4323515;28;657693;-88
2022/03/28 01:31:14;;;;;;;28.05;9.15;;;-0.30;1.00;;;;;;4341659;28;657510;-89
2022/03/28 01:34:01;;;;;;;26.67;9.13;;;-0.20;1.00;;;;;;4307426;28;657982;-88
2022/03/28 01:36:49;;;;;;;28.57;9.17;;;-0.20;1.00;;;;;;4334407;28;658043;-89
2022/03/28 01:39:38;;;;;;;35.97;10.20;;;-0.20;1.00;;;;;;4321527;28;657685;-88
2022/03/28 01:42:25;;;;;;;24.33;8.87;;;-0.20;1.00;;;;;;4322972;28;658520;-89
2022/03/28 01:45:14;;;;;;;26.10;8.97;;;-0.20;1.00;;;;;;4340164;28;658080;-88
2022/03/28 01:48:02;;;;;;;36.03;11.67;;;-0.20;1.00;;;;;;4322076;28;657712;-89
2022/03/28 01:50:49;;;;;;;35.27;10.97;;;-0.20;1.00;;;;;;4338441;28;658577;-89
2022/03/28 01:53:36;;;;;;;32.28;11.63;;;-0.20;1.00;;;;;;4311958;28;658874;-89
2022/03/28 01:56:25;;;;;;;28.83;11.03;;;-0.20;1.00;;;;;;4336772;28;658827;-89
2022/03/28 01:59:12;;;;;;;38.70;12.10;;;-0.30;1.00;;;;;;4311934;28;659113;-88
2022/03/28 02:02:00;;;;;;;38.60;13.10;;;-0.30;1.00;;;;;;4322703;28;658503;-89
2022/03/28 02:04:48;;;;;;;34.90;12.37;;;-0.20;1.00;;;;;;4338015;28;658876;-89
2022/03/28 02:07:35;;;;;;;38.10;12.83;;;-0.20;1.00;;;;;;4325170;28;658920;-89
2022/03/28 02:10:23;;;;;;;35.13;13.30;;;-0.20;1.00;;;;;;4340059;28;659297;-89
2022/03/28 02:13:12;;;;;;;32.30;11.93;;;-0.20;1.00;;;;;;4324969;28;659420;-89
2022/03/28 02:16:00;;;;;;;32.33;12.10;;;-0.20;1.00;;;;;;4335816;28;658750;-89
2022/03/28 02:18:48;;;;;;;34.63;12.57;;;-0.20;1.00;;;;;;4312514;28;659822;-89
2022/03/28 02:21:36;;;;;;;35.27;13.03;;;-0.20;1.00;;;;;;4326325;28;659104;-89
2022/03/28 02:24:23;;;;;;;37.63;12.83;;;-0.20;1.00;;;;;;4331112;28;659329;-90
2022/03/28 02:27:10;;;;;;;39.67;14.63;;;-0.20;1.00;;;;;;4305225;28;658482;-88
2022/03/28 02:29:59;;;;;;;43.80;14.87;;;-0.20;1.00;;;;;;4332704;28;659490;-90
2022/03/28 02:32:46;;;;;;;46.77;14.30;;;-0.10;1.00;;;;;;4317251;28;658685;-89
2022/03/28 02:35:34;;;;;;;40.90;14.50;;;-0.10;1.00;;;;;;4341009;28;659046;-88
2022/03/28 02:38:21;;;;;;;50.57;17.13;;;0.00;1.00;;;;;;4321029;28;658986;-89
2022/03/28 02:41:09;;;;;;;52.53;18.50;;;0.10;1.00;;;;;;4341346;28;658957;-89
2022/03/28 02:43:56;;;;;;;47.53;17.87;;;0.10;1.00;;;;;;4320866;28;657990;-88
2022/03/28 02:46:45;;;;;;;44.97;17.47;;;0.20;1.00;;;;;;4336343;28;658045;-89
2022/03/28 02:49:32;;;;;;;47.33;17.03;;;0.20;1.00;;;;;;4319349;28;657758;-88
2022/03/28 02:52:21;;;;;;;44.43;16.90;;;0.30;1.00;;;;;;4344630;28;657688;-89
2022/03/28 02:55:08;;;;;;;43.67;16.27;;;0.30;1.00;;;;;;4322029;28;657911;-89
2022/03/28 02:57:56;;;;;;;52.53;17.73;;;0.20;1.00;;;;;;4314696;28;657529;-88
2022/03/28 03:00:43;;;;;;;48.47;17.23;;;0.20;1.00;;;;;;4333455;28;657410;-89
2022/03/28 03:03:32;;;;;;;51.97;17.60;;;0.10;1.00;;;;;;4320641;28;657971;-89
2022/03/28 03:06:19;;;;;;;51.67;17.43;;;0.20;1.00;;;;;;4344443;28;657141;-90
2022/03/28 03:09:07;;;;;;;53.80;18.13;;;0.10;1.00;;;;;;4322114;28;657381;-89
2022/03/28 03:11:54;;;;;;;46.93;17.20;;;0.10;1.00;;;;;;4341251;28;657180;-89
2022/03/28 03:14:41;;;;;;;57.90;19.35;;;0.10;1.00;;;;;;4318064;28;658034;-90
2022/03/28 03:17:29;;;;;;;52.10;19.30;;;0.10;1.00;;;;;;4344832;28;658681;-90
2022/03/28 03:20:17;;;;;;;59.80;19.43;;;0.10;1.00;;;;;;4320795;28;657341;-90
2022/03/28 03:23:06;;;;;;;49.63;18.83;;;0.10;1.00;;;;;;4333869;28;657939;-89
2022/03/28 03:25:53;;;;;;;47.57;17.87;;;0.10;1.00;;;;;;4341542;28;658155;-90
2022/03/28 03:28:40;;;;;;;37.67;14.37;;;0.10;1.00;;;;;;4317140;28;657659;-89
2022/03/28 03:31:28;;;;;;;47.53;15.37;;;0.10;1.00;;;;;;4342957;28;658832;-90
2022/03/28 03:34:15;;;;;;;33.50;12.53;;;0.10;1.00;;;;;;4323776;28;657582;-89
2022/03/28 03:37:05;;;;;;;36.13;14.13;;;0.20;1.00;;;;;;4337404;28;657893;-91
2022/03/28 03:39:52;;;;;;;34.33;12.87;;;0.20;1.00;;;;;;4320430;28;657824;-89
2022/03/28 03:42:41;;;;;;;34.60;12.87;;;0.30;1.00;;;;;;4331500;28;658039;-89
2022/03/28 03:45:28;;;;;;;33.93;11.60;;;0.30;1.00;;;;;;4341143;28;658974;-89
2022/03/28 03:48:15;;;;;;;29.57;11.57;;;0.40;1.00;;;;;;4315796;28;657701;-89
2022/03/28 03:51:03;;;;;;;28.87;10.63;;;0.40;1.00;;;;;;4339315;28;657733;-90
2022/03/28 03:53:52;;;;;;;32.33;11.97;;;0.40;1.00;;;;;;4329846;28;657921;-89
2022/03/28 03:56:39;;;;;;;29.83;10.83;;;0.50;1.00;;;;;;4340714;28;657745;-90
2022/03/28 03:59:27;;;;;;;29.00;11.10;;;0.50;1.00;;;;;;4315341;28;657884;-90
2022/03/28 04:02:14;;;;;;;35.97;12.43;;;0.60;1.00;;;;;;4341271;28;657477;-89
2022/03/28 04:05:01;;;;;;;31.37;11.73;;;0.70;1.00;;;;;;4322092;28;657860;-90
2022/03/28 04:07:49;;;;;;;32.77;11.87;;;0.70;1.00;;;;;;4333301;28;657588;-91
2022/03/28 04:10:38;;;;;;;30.00;11.03;;;0.80;1.00;;;;;;4316247;28;658016;-89
2022/03/28 04:13:25;;;;;;;33.33;12.83;;;1.00;1.00;;;;;;4335344;28;658018;-89
2022/03/28 04:16:13;;;;;;;35.03;12.80;;;1.30;1.00;;;;;;4340278;28;657827;-89
2022/03/28 04:19:00;;;;;;;34.67;13.57;;;1.40;1.00;;;;;;4326311;28;657146;-89
2022/03/28 04:21:48;;;;;;;36.40;13.70;;;1.40;1.00;;;;;;4336810;28;658679;-91
2022/03/28 04:24:35;;;;;;;40.20;13.20;;;1.60;1.00;;;;;;4323180;28;657924;-89
2022/03/28 04:27:24;;;;;;;41.23;14.77;;;1.80;1.00;;;;;;4338819;28;658688;-90
2022/03/28 04:30:12;;;;;;;39.50;14.47;;;2.00;1.00;;;;;;4300850;29;658383;-91
2022/03/28 04:33:00;;;;;;;32.83;13.40;;;2.20;1.00;;;;;;4322336;28;657936;-90
2022/03/28 04:35:47;;;;;;;39.80;12.43;;;2.30;1.00;;;;;;4294452;29;658272;-90
2022/03/28 04:38:35;;;;;;;36.57;11.77;;;2.40;1.00;;;;;;4315605;29;657119;-91
2022/03/28 04:41:22;;;;;;;36.77;13.77;;;2.60;1.00;;;;;;4298681;28;658041;-89
2022/03/28 04:44:11;;;;;;;36.87;13.40;;;2.70;1.00;;;;;;4326259;28;656921;-90
2022/03/28 04:46:58;;;;;;;39.83;13.50;;;2.60;1.00;;;;;;4300483;29;658081;-90
2022/03/28 04:49:45;;;;;;;39.33;13.57;;;2.50;1.00;;;;;;4293467;29;657521;-89
2022/03/28 04:52:33;;;;;;;42.00;14.23;;;2.60;1.00;;;;;;4320522;28;658875;-90
2022/03/28 04:55:20;;;;;;;35.97;14.27;;;2.70;1.00;;;;;;4305883;29;657606;-89
2022/03/28 04:58:08;;;;;;;38.33;13.90;;;2.80;1.00;;;;;;4320552;28;658234;-90
2022/03/28 05:00:57;;;;;;;39.27;14.03;;;2.70;1.00;;;;;;4304436;29;657820;-88
2022/03/28 05:03:44;;;;;;;37.85;14.45;;;2.60;1.00;;;;;;4322669;28;657718;-88
2022/03/28 05:06:31;;;;;;;42.20;13.93;;;2.70;1.00;;;;;;4299017;28;657359;-89
2022/03/28 05:09:19;;;;;;;40.23;13.93;;;2.80;1.00;;;;;;4327153;28;658535;-87
2022/03/28 05:12:07;;;;;;;39.27;14.73;;;3.00;1.00;;;;;;4302191;28;658023;-87
2022/03/28 05:14:55;;;;;;;43.77;14.67;;;3.00;1.00;;;;;;4331251;28;657223;-87
2022/03/28 05:17:44;;;;;;;37.80;15.23;;;3.10;1.00;;;;;;4309162;28;658488;-87
2022/03/28 05:20:31;;;;;;;42.00;14.60;;;3.10;1.00;;;;;;4304930;29;657663;-87
2022/03/28 05:23:19;;;;;;;35.80;13.10;;;3.20;1.00;;;;;;4324390;29;658229;-87
2022/03/28 05:26:06;;;;;;;39.27;13.60;;;3.20;1.00;;;;;;4300358;29;657442;-87
2022/03/28 05:28:53;;;;;;;30.90;12.03;;;3.30;1.00;;;;;;4329901;28;658731;-87
2022/03/28 05:31:41;;;;;;;29.20;11.53;;;3.50;1.00;;;;;;4313601;28;657825;-87
2022/03/28 05:34:30;;;;;;;24.67;9.60;;;3.80;1.00;;;;;;4339533;28;658432;-86
2022/03/28 05:37:18;;;;;;;29.87;11.93;;;4.10;1.00;;;;;;4317541;28;656505;-86
2022/03/28 05:40:07;;;;;;;26.43;10.70;;;4.30;1.00;;;;;;4320632;28;658284;-86
2022/03/28 05:42:54;;;;;;;28.37;12.20;;;4.40;1.00;;;;;;4337671;28;657492;-86
2022/03/28 05:45:41;;;;;;;37.20;12.50;;;4.70;1.00;;;;;;4316441;28;657659;-88
2022/03/28 05:48:29;;;;;;;30.37;11.90;;;4.70;1.00;;;;;;4333865;28;657652;-86
2022/03/28 05:51:17;;;;;;;27.13;9.57;;;4.80;1.00;;;;;;4317804;28;657598;-86
2022/03/28 05:54:05;;;;;;;32.87;11.27;;;5.00;1.00;;;;;;4346976;28;656325;-86
2022/03/28 05:56:53;;;;;;;28.43;11.67;;;5.10;1.00;;;;;;4338819;28;658004;-86
2022/03/28 05:59:40;;;;;;;31.17;10.20;;;5.30;1.00;;;;;;4326812;28;657669;-86
2022/03/28 06:02:28;;;;;;;23.63;9.60;;;5.50;1.00;;;;;;4336354;28;658025;-86
2022/03/28 06:05:15;;;;;;;18.93;5.93;;;5.50;1.00;;;;;;4320618;28;657313;-85
2022/03/28 06:08:05;;;;;;;12.93;5.37;;;5.70;1.00;;;;;;4337728;28;657208;-86
2022/03/28 06:10:52;;;;;;;22.03;9.43;;;5.80;1.00;;;;;;4319183;28;656636;-85
2022/03/28 06:13:42;;;;;;;24.17;9.73;;;6.00;1.00;;;;;;4339305;28;656248;-84
2022/03/28 06:16:29;;;;;;;23.80;9.70;;;6.10;1.00;;;;;;4315891;28;656610;-84
2022/03/28 06:19:16;;;;;;;23.20;8.43;;;6.30;1.00;;;;;;4314651;28;657272;-84
2022/03/28 06:22:04;;;;;;;26.20;8.37;;;6.40;1.00;;;;;;4339897;28;657309;-85
2022/03/28 06:24:53;;;;;;;25.27;8.30;;;6.60;1.00;;;;;;4317068;28;656956;-85
2022/03/28 06:27:41;;;;;;;19.13;8.20;;;6.80;1.00;;;;;;4301613;28;656666;-85
2022/03/28 06:30:29;;;;;;;23.37;9.57;;;6.90;1.00;;;;;;4331673;28;657413;-84
2022/03/28 06:33:16;;;;;;;21.17;8.47;;;7.00;1.00;;;;;;4318693;28;656536;-84
2022/03/28 06:36:04;;;;;;;19.67;7.60;;;7.20;1.00;;;;;;4338168;28;656755;-85
2022/03/28 06:38:51;;;;;;;20.53;8.07;;;7.40;1.00;;;;;;4317325;28;656410;-83
2022/03/28 06:41:40;;;;;;;17.20;7.37;;;7.60;1.00;;;;;;4328538;28;656159;-83
2022/03/28 06:44:28;;;;;;;24.63;7.77;;;7.80;1.00;;;;;;4314339;28;657012;-84
2022/03/28 06:47:15;;;;;;;15.27;6.10;;;7.80;1.00;;;;;;4329603;28;656655;-85
2022/03/28 06:50:03;;;;;;;18.73;7.33;;;7.90;1.00;;;;;;4328014;28;657169;-85
2022/03/28 06:52:50;;;;;;;17.15;6.95;;;8.00;1.00;;;;;;4318951;28;656768;-85
2022/03/28 06:55:38;;;;;;;20.73;7.60;;;8.00;1.00;;;;;;4329897;28;657184;-85
2022/03/28 06:58:27;;;;;;;15.43;6.83;;;8.10;1.00;;;;;;4315976;28;656865;-84
2022/03/28 07:01:14;;;;;;;15.70;6.23;;;8.30;1.00;;;;;;4338877;28;656572;-86
2022/03/28 07:04:03;;;;;;;14.73;6.30;;;8.50;1.00;;;;;;4319253;28;657044;-85
2022/03/28 07:06:50;;;;;;;17.80;6.10;;;8.60;1.00;;;;;;4326273;28;656908;-86
2022/03/28 07:09:38;;;;;;;10.43;3.67;;;8.70;1.00;;;;;;4341593;28;657266;-86
2022/03/28 07:12:25;;;;;;;19.85;7.07;;;8.90;1.00;;;;;;4319381;28;656801;-85
2022/03/28 07:15:14;;;;;;;22.70;7.37;;;9.00;1.00;;;;;;4333467;28;657354;-87
2022/03/28 07:18:06;;;;;;;13.70;6.23;;;9.10;1.00;;;;;;4314250;28;656529;-86
2022/03/28 07:20:53;;;;;;;9.52;4.72;;;9.20;1.00;;;;;;4316657;28;657273;-86
2022/03/28 07:23:41;;;;;;;15.70;5.10;;;9.30;1.00;;;;;;4319486;28;655745;-86
2022/03/28 07:26:28;;;;;;;18.60;7.70;;;9.30;1.00;;;;;;4343360;28;657589;-85
2022/03/28 07:29:17;;;;;;;20.13;7.93;;;9.40;1.00;;;;;;4308167;28;656820;-86
2022/03/28 07:32:07;;;;;;;23.63;6.90;;;9.40;1.00;;;;;;4324950;29;657056;-85
2022/03/28 07:34:54;;;;;;;20.83;8.70;;;9.70;1.00;;;;;;4298683;28;656664;-86
2022/03/28 07:37:42;;;;;;;20.93;8.10;;;9.70;1.00;;;;;;4300616;29;656899;-85
2022/03/28 07:40:30;;;;;;;22.53;9.67;;;9.70;1.00;;;;;;4316944;29;656323;-86
2022/03/28 07:43:18;;;;;;;21.73;9.77;;;9.70;1.00;;;;;;4314936;29;656790;-86
2022/03/28 07:46:06;;;;;;;25.43;10.37;;;9.90;1.00;;;;;;4308949;29;656566;-87
2022/03/28 07:48:58;;;;;;;26.10;10.30;;;10.00;1.00;;;;;;4316438;29;657528;-86
2022/03/28 07:51:46;;;;;;;14.90;5.77;;;10.20;1.00;;;;;;4269113;28;658824;-86
2022/03/28 07:54:33;;;;;;;16.87;7.23;;;10.40;1.00;;;;;;4319687;29;658422;-86
2022/03/28 07:57:21;;;;;;;21.73;9.30;;;10.50;1.00;;;;;;4298525;29;657982;-86
2022/03/28 08:00:10;;;;;;;20.77;9.40;;;10.70;1.00;;;;;;4326110;29;658417;-86
2022/03/28 08:02:58;;;;;;;24.83;8.85;;;10.80;1.00;;;;;;4301556;29;658223;-85
2022/03/28 08:05:47;;;;;;;24.33;10.70;;;11.00;1.00;;;;;;4310675;29;657541;-85
2022/03/28 08:08:35;;;;;;;21.80;9.53;;;11.10;1.00;;;;;;4320051;29;658693;-86
2022/03/28 08:11:23;;;;;;;24.73;10.73;;;11.10;1.00;;;;;;4293539;29;658230;-86
2022/03/28 08:14:11;;;;;;;19.63;8.90;;;11.30;1.00;;;;;;4308958;29;658889;-86
2022/03/28 08:16:58;;;;;;;21.60;9.50;;;11.70;1.00;;;;;;4317234;29;658277;-86
2022/03/28 08:19:46;;;;;;;17.07;6.67;;;11.90;1.00;;;;;;4297820;29;657822;-86
2022/03/28 08:22:34;;;;;;;19.37;7.10;;;12.00;1.00;;;;;;4313459;29;658071;-87
2022/03/28 08:25:22;;;;;;;22.60;9.20;;;12.10;1.00;;;;;;4301848;29;657637;-86
2022/03/28 08:28:10;;;;;;;23.70;9.10;;;12.20;1.00;;;;;;4309613;28;657906;-87
2022/03/28 08:30:57;;;;;;;18.90;6.07;;;12.30;1.00;;;;;;4312465;28;657667;-85
2022/03/28 08:33:45;;;;;;;23.37;10.53;;;12.50;1.00;;;;;;4315950;29;657321;-85
2022/03/28 08:36:32;;;;;;;15.87;6.50;;;12.60;1.00;;;;;;4306638;28;659984;-86
2022/03/28 08:39:21;;;;;;;23.90;10.00;;;12.90;1.00;;;;;;4344558;28;657357;-88
2022/03/28 08:42:08;;;;;;;20.65;9.75;;;13.30;1.00;;;;;;4316079;28;659155;-86
2022/03/28 08:44:56;;;;;;;22.10;10.33;;;13.60;1.00;;;;;;4317178;28;657730;-86
2022/03/28 08:47:45;;;;;;;22.77;10.90;;;13.60;1.00;;;;;;4344568;28;659119;-88
2022/03/28 08:50:32;;;;;;;22.30;10.90;;;13.80;1.00;;;;;;4313204;28;658970;-85
2022/03/28 08:53:20;;;;;;;22.50;8.43;;;13.80;1.00;;;;;;4340281;28;658446;-86
2022/03/28 08:56:09;;;;;;;21.47;10.43;;;13.80;1.00;;;;;;4313902;28;658349;-86
2022/03/28 08:58:56;;;;;;;24.30;11.63;;;13.80;1.00;;;;;;4324726;28;658854;-84
2022/03/28 09:01:45;;;;;;;22.73;10.73;;;14.00;1.00;;;;;;4340919;28;659294;-85
2022/03/28 09:04:32;;;;;;;20.70;10.40;;;14.10;1.00;;;;;;4311400;28;659222;-83
2022/03/28 09:07:26;;;;;;;8.53;4.50;;;14.40;1.00;;;;;;4343671;28;658356;-84
2022/03/28 09:10:14;;;;;;;18.43;8.80;;;14.30;1.00;;;;;;4323143;28;656829;-86
2022/03/28 09:13:04;;;;;;;12.77;5.83;;;14.50;1.00;;;;;;4306866;28;657431;-86
2022/03/28 09:15:55;;;;;;;19.10;9.33;;;14.60;1.00;;;;;;4306991;28;658023;-87
2022/03/28 09:18:42;;;;;;;19.87;9.63;;;14.60;1.00;;;;;;4319895;28;658463;-86
2022/03/28 09:21:29;;;;;;;14.07;4.07;;;14.70;1.00;;;;;;4342736;28;657107;-86
2022/03/28 09:24:17;;;;;;;21.27;8.30;;;14.90;1.00;;;;;;4318916;28;657373;-86
2022/03/28 09:27:12;;;;;;;11.63;5.73;;;14.90;1.00;;;;;;4337926;28;658008;-86
2022/03/28 09:30:07;;;;;;;14.23;4.67;;;15.20;1.00;;;;;;4308564;28;657593;-87
2022/03/28 09:32:54;;;;;;;10.17;4.87;;;15.40;1.00;;;;;;4305971;28;657242;-88
2022/03/28 09:35:43;;;;;;;9.60;4.57;;;15.50;1.00;;;;;;4320391;28;657760;-84
2022/03/28 09:38:31;;;;;;;12.40;6.30;;;15.70;1.00;;;;;;4305250;28;656465;-86
2022/03/28 09:41:19;;;;;;;15.33;5.83;;;16.00;1.00;;;;;;4330857;28;657853;-85
2022/03/28 09:44:07;;;;;;;15.43;6.00;;;16.30;1.00;;;;;;4314892;28;657385;-86
2022/03/28 09:47:03;;;;;;;11.33;5.83;;;16.20;1.00;;;;;;4336810;28;658258;-86
2022/03/28 09:49:53;;;;;;;10.57;5.63;;;16.20;1.00;;;;;;4310263;28;657803;-85
2022/03/28 09:52:49;;;;;;;15.33;5.07;;;16.10;1.00;;;;;;4334440;28;657680;-85
2022/03/28 09:55:46;;;;;;;12.40;5.90;;;16.40;1.00;;;;;;4311450;28;658247;-85
2022/03/28 09:58:42;;;;;;;10.47;3.70;;;16.50;1.00;;;;;;4314258;28;658423;-85
2022/03/28 10:01:32;;;;;;;10.97;6.00;;;16.60;1.00;;;;;;4309426;28;658055;-86
2022/03/28 10:04:21;;;;;;;11.33;5.90;;;16.70;1.00;;;;;;4310737;28;657692;-84
2022/03/28 10:07:08;;;;;;;12.53;5.90;;;16.60;1.00;;;;;;4305366;28;658034;-85
2022/03/28 10:09:56;;;;;;;10.33;5.80;;;16.90;1.00;;;;;;4305952;28;657954;-85
2022/03/28 10:12:43;;;;;;;12.30;5.93;;;17.10;1.00;;;;;;4335856;28;658512;-86
2022/03/28 10:15:31;;;;;;;11.07;6.13;;;17.20;1.00;;;;;;4320152;28;657689;-86
2022/03/28 10:18:21;;;;;;;9.07;4.20;;;17.40;1.00;;;;;;4339178;28;657828;-86
2022/03/28 10:21:16;;;;;;;9.00;4.27;;;17.50;1.00;;;;;;4301940;28;656927;-86
2022/03/28 10:24:05;;;;;;;7.97;4.77;;;17.20;1.00;;;;;;4311229;28;657153;-86
2022/03/28 10:26:54;;;;;;;12.97;5.63;;;17.40;1.00;;;;;;4315370;28;657055;-86
2022/03/28 10:29:42;;;;;;;10.67;5.97;;;17.10;1.00;;;;;;4305771;28;657963;-86
2022/03/28 10:32:29;;;;;;;11.30;6.18;;;16.90;1.00;;;;;;4340907;28;657528;-86
2022/03/28 10:35:18;;;;;;;11.43;4.83;;;17.20;1.00;;;;;;4307966;28;657735;-85
2022/03/28 10:38:17;;;;;;;11.37;4.40;;;17.20;1.00;;;;;;4309683;28;657614;-86
2022/03/28 10:41:05;;;;;;;10.37;6.00;;;17.40;1.00;;;;;;4315129;28;657931;-86
2022/03/28 10:43:52;;;;;;;10.20;4.97;;;17.30;1.00;;;;;;4312791;28;658375;-86
2022/03/28 10:46:39;;;;;;;12.13;6.40;;;17.40;1.00;;;;;;4330734;28;657387;-85
2022/03/28 10:49:27;;;;;;;12.77;6.30;;;17.60;1.00;;;;;;4313613;28;657239;-85
2022/03/28 10:52:17;;;;;;;9.40;5.27;;;17.60;1.00;;;;;;4334006;28;657455;-85
2022/03/28 10:55:10;;;;;;;7.93;3.80;;;17.70;1.00;;;;;;4319851;28;656247;-85
2022/03/28 10:58:13;;;;;;;8.63;4.27;;;17.80;1.00;;;;;;4312315;28;657008;-85
2022/03/28 11:01:31;;;;;;;13.73;5.60;;;17.90;1.00;;;;;;4315359;28;656763;-85
2022/03/28 11:04:20;;;;;;;6.20;3.97;;;17.90;1.00;;;;;;4280711;28;657677;-86
2022/03/28 11:07:10;;;;;;;5.67;2.97;;;17.90;1.00;;;;;;4314362;28;656995;-86
2022/03/28 11:10:02;;;;;;;12.00;4.47;;;17.70;1.00;;;;;;4313361;28;657441;-86
2022/03/28 11:12:51;;;;;;;13.97;6.07;;;18.10;1.00;;;;;;4317220;28;657472;-85
2022/03/28 11:15:39;;;;;;;10.53;4.97;;;18.00;1.00;;;;;;4311766;28;657650;-86
2022/03/28 11:18:28;;;;;;;10.13;5.72;;;18.20;1.00;;;;;;4320068;28;657841;-86
2022/03/28 11:21:17;;;;;;;13.27;6.13;;;18.40;1.00;;;;;;4300794;28;657439;-86
2022/03/28 11:24:11;;;;;;;9.77;4.60;;;18.70;1.00;;;;;;4332237;28;657752;-86
2022/03/28 11:26:59;;;;;;;10.07;4.53;;;18.90;1.00;;;;;;4312877;28;657287;-85
2022/03/28 11:29:53;;;;;;;12.47;5.03;;;18.80;1.00;;;;;;4309619;28;657535;-84
2022/03/28 11:32:40;;;;;;;7.20;2.97;;;18.60;1.00;;;;;;4285837;28;657711;-85
2022/03/28 11:35:28;;;;;;;13.70;5.40;;;18.60;1.00;;;;;;4330323;28;657078;-85
2022/03/28 11:38:16;;;;;;;17.67;5.50;;;18.60;1.00;;;;;;4313444;28;657505;-85
2022/03/28 11:41:03;;;;;;;11.87;5.63;;;19.00;1.00;;;;;;4340472;28;658247;-86
2022/03/28 11:43:51;;;;;;;10.37;5.03;;;19.30;1.00;;;;;;4313129;28;658300;-86
2022/03/28 11:46:40;;;;;;;21.17;5.47;;;19.20;1.00;;;;;;4338091;28;658022;-85
2022/03/28 11:49:27;;;;;;;7.90;4.33;;;19.10;1.00;;;;;;4315302;28;657937;-85
2022/03/28 11:52:15;;;;;;;7.80;4.13;;;19.30;1.00;;;;;;4338166;28;657626;-85
2022/03/28 11:55:02;;;;;;;9.77;5.30;;;19.40;1.00;;;;;;4316657;28;657245;-85
2022/03/28 12:01:02;;;;;;;11.80;6.53;;;19.10;1.00;;;;;;4324686;28;656298;-85
2022/03/28 12:03:52;;;;;;;8.53;3.03;;;19.00;1.00;;;;;;4329515;28;657313;-86
2022/03/28 12:06:39;;;;;;;15.07;6.03;;;19.30;1.00;;;;;;4336502;28;657117;-85
2022/03/28 12:09:26;;;;;;;14.63;6.13;;;19.50;1.00;;;;;;4317551;28;657391;-86
2022/03/28 12:12:15;;;;;;;13.37;6.03;;;19.90;1.00;;;;;;4339055;28;657295;-86
2022/03/28 12:15:03;;;;;;;12.47;6.87;;;20.40;1.00;;;;;;4322273;28;657931;-86
2022/03/28 12:17:52;;;;;;;13.80;6.53;;;19.90;1.00;;;;;;4309068;28;657622;-86
2022/03/28 12:20:43;;;;;;;11.67;5.90;;;19.90;1.00;;;;;;4326112;28;658081;-86
2022/03/28 12:23:31;;;;;;;12.70;6.30;;;19.50;1.00;;;;;;4320130;28;657607;-86
2022/03/28 12:26:18;;;;;;;12.33;4.20;;;19.50;1.00;;;;;;4344604;28;658083;-86
2022/03/28 12:29:05;;;;;;;9.63;5.53;;;19.20;1.00;;;;;;4318860;28;658075;-86
2022/03/28 12:31:53;;;;;;;12.87;6.50;;;19.40;1.00;;;;;;4323405;28;657247;-85
2022/03/28 12:34:40;;;;;;;9.03;4.40;;;19.60;1.00;;;;;;4303271;28;657885;-86
2022/03/28 12:37:29;;;;;;;9.97;5.10;;;20.00;1.00;;;;;;4335846;28;656879;-86
2022/03/28 12:40:16;;;;;;;13.00;5.60;;;20.10;1.00;;;;;;4314554;28;656971;-86
2022/03/28 12:43:05;;;;;;;11.57;5.50;;;20.30;1.00;;;;;;4343793;28;657482;-85
2022/03/28 12:45:53;;;;;;;13.70;5.63;;;20.60;1.00;;;;;;4289383;29;658417;-88
2022/03/28 12:48:42;;;;;;;9.20;4.93;;;20.40;1.00;;;;;;4324913;28;657279;-86
2022/03/28 12:51:31;;;;;;;14.00;5.50;;;20.10;1.00;;;;;;4322733;28;657291;-86
2022/03/28 12:54:21;;;;;;;8.90;4.13;;;20.40;1.00;;;;;;4295572;28;658062;-87
2022/03/28 12:57:08;;;;;;;8.13;5.33;;;20.80;1.00;;;;;;4287610;28;656857;-87
2022/03/28 12:59:55;;;;;;;6.37;3.40;;;20.90;1.00;;;;;;4318025;28;656714;-87
2022/03/28 13:02:53;;;;;;;12.53;5.73;;;20.70;1.00;;;;;;4346282;28;656671;-86
2022/03/28 13:06:02;;;;;;;9.90;5.73;;;20.60;1.00;;;;;;4320266;28;657570;-86
2022/03/28 13:08:49;;;;;;;9.33;5.00;;;20.40;1.00;;;;;;4320505;28;656636;-86
2022/03/28 13:11:38;;;;;;;10.60;5.40;;;20.50;1.00;;;;;;4325254;28;656954;-87
2022/03/28 13:14:26;;;;;;;17.30;5.23;;;20.20;1.00;;;;;;4314238;28;657884;-87
2022/03/28 13:17:14;;;;;;;12.13;5.23;;;20.60;1.00;;;;;;4342660;28;657815;-87
2022/03/28 13:20:03;;;;;;;13.83;4.43;;;20.80;1.00;;;;;;4315995;28;658465;-89
2022/03/28 13:22:51;;;;;;;13.43;6.03;;;20.80;1.00;;;;;;4320258;28;657691;-87
2022/03/28 13:25:42;;;;;;;16.60;6.23;;;20.60;1.00;;;;;;4340386;28;657834;-89
2022/03/28 13:28:33;;;;;;;11.37;5.47;;;20.80;1.00;;;;;;4331285;28;657407;-89
2022/03/28 13:31:21;;;;;;;12.07;5.90;;;21.00;1.00;;;;;;4314610;28;657710;-88
2022/03/28 13:34:27;;;;;;;10.50;5.60;;;20.40;1.00;;;;;;4337194;28;658731;-88
2022/03/28 13:37:21;;;;;;;14.57;5.80;;;20.50;1.00;;;;;;4320382;28;657494;-88
2022/03/28 13:40:09;;;;;;;11.93;5.70;;;20.90;1.00;;;;;;4315753;28;658171;-87
2022/03/28 13:42:56;;;;;;;12.17;6.00;;;21.20;1.00;;;;;;4317564;28;657684;-88
2022/03/28 13:45:45;;;;;;;8.33;4.50;;;20.60;1.00;;;;;;4337987;28;657887;-88
2022/03/28 13:51:40;;;;;;;12.67;6.27;;;20.40;1.00;;;;;;4330649;28;656546;-86
2022/03/28 13:54:28;;;;;;;17.33;5.90;;;20.40;1.00;;;;;;4333018;28;657826;-88
2022/03/28 13:57:15;;;;;;;11.97;6.33;;;20.60;1.00;;;;;;4322999;28;657493;-87
2022/03/28 14:00:03;;;;;;;7.77;4.43;;;20.70;1.00;;;;;;4342897;28;657656;-88
2022/03/28 14:02:52;;;;;;;11.57;5.13;;;20.70;1.00;;;;;;4324356;28;657359;-88
2022/03/28 14:05:39;;;;;;;8.40;4.40;;;20.50;1.00;;;;;;4346790;28;657840;-87
2022/03/28 14:08:28;;;;;;;11.20;4.63;;;20.90;1.00;;;;;;4326200;28;657004;-87
2022/03/28 14:11:22;;;;;;;10.20;5.77;;;20.60;1.00;;;;;;4312081;28;657540;-90
2022/03/28 14:14:12;;;;;;;11.37;5.50;;;20.70;1.00;;;;;;4308934;28;657415;-89
2022/03/28 14:17:00;;;;;;;10.07;5.27;;;21.00;1.00;;;;;;4312266;28;657485;-89
2022/03/28 14:19:49;;;;;;;6.47;3.80;;;21.10;1.00;;;;;;4321244;28;658043;-88
2022/03/28 14:22:37;;;;;;;10.83;5.53;;;20.70;1.00;;;;;;4315843;28;656534;-88
2022/03/28 14:25:26;;;;;;;14.23;5.67;;;20.50;1.00;;;;;;4330082;28;657555;-88
2022/03/28 14:28:14;;;;;;;12.63;5.83;;;20.60;1.00;;;;;;4315213;28;657859;-88
2022/03/28 14:31:01;;;;;;;11.70;5.80;;;20.90;1.00;;;;;;4315435;28;657899;-87
2022/03/28 14:33:48;;;;;;;7.77;4.17;;;21.20;1.00;;;;;;4332695;28;657920;-88
2022/03/28 14:36:37;;;;;;;8.50;4.87;;;20.70;1.00;;;;;;4312311;28;656907;-88